createdAt,value
2018-05-08T00:00:21.769Z,3.13
2018-05-08T00:02:49.293Z,3.20
2018-05-08T00:05:16.900Z,3.40
2018-05-08T00:07:44.424Z,3.00
2018-05-08T00:10:12.424Z,3.00
2018-05-08T00:12:39.988Z,3.30
2018-05-08T00:15:07.553Z,3.30
2018-05-08T00:17:35.110Z,3.43
2018-05-08T00:20:02.663Z,3.37
2018-05-08T00:22:30.213Z,3.60
2018-05-08T00:24:57.791Z,3.30
2018-05-08T00:27:25.344Z,3.10
2018-05-08T00:29:52.906Z,3.50
2018-05-08T00:32:20.567Z,3.40
2018-05-08T00:34:48.125Z,3.70
2018-05-08T00:37:15.897Z,3.10
2018-05-08T00:39:43.452Z,3.10
2018-05-08T00:42:11.030Z,3.53
2018-05-08T00:44:38.557Z,3.93
2018-05-08T00:47:06.110Z,3.57
2018-05-08T00:49:33.688Z,3.20
2018-05-08T00:52:01.360Z,3.47
2018-05-08T00:54:40.668Z,3.27
2018-05-08T00:57:08.347Z,3.10
2018-05-08T00:59:35.871Z,3.60
2018-05-08T01:02:03.436Z,3.33
2018-05-08T01:04:31.129Z,3.67
2018-05-08T01:06:58.649Z,3.27
2018-05-08T01:09:26.228Z,3.77
2018-05-08T01:11:53.758Z,3.20
2018-05-08T01:14:21.382Z,3.80
2018-05-08T01:16:48.939Z,3.60
2018-05-08T01:19:16.590Z,3.47
2018-05-08T01:21:44.146Z,3.30
2018-05-08T01:24:11.795Z,3.50
2018-05-08T01:26:39.375Z,3.23
2018-05-08T01:29:07.041Z,3.83
2018-05-08T01:31:34.656Z,3.80
2018-05-08T01:34:02.153Z,3.70
2018-05-08T01:36:30.603Z,3.40
2018-05-08T01:38:58.154Z,3.33
2018-05-08T01:41:25.707Z,3.47
2018-05-08T01:43:53.313Z,3.97
2018-05-08T01:46:20.973Z,3.93
2018-05-08T01:48:48.484Z,3.67
2018-05-08T01:51:16.040Z,3.60
2018-05-08T01:53:44.022Z,4.25
2018-05-08T01:56:11.569Z,5.10
2018-05-08T01:58:39.178Z,4.63
2018-05-08T02:01:06.725Z,4.67
2018-05-08T02:03:34.297Z,4.70
2018-05-08T02:06:01.960Z,4.50
2018-05-08T02:08:29.535Z,4.32
2018-05-08T02:10:57.086Z,4.40
2018-05-08T02:13:24.945Z,4.50
2018-05-08T02:15:52.487Z,3.80
2018-05-08T02:18:20.040Z,4.07
2018-05-08T02:20:47.602Z,4.23
2018-05-08T02:23:15.297Z,3.90
2018-05-08T02:25:42.822Z,3.97
2018-05-08T02:28:10.404Z,3.83
2018-05-08T02:30:37.965Z,4.20
2018-05-08T02:33:05.504Z,3.30
2018-05-08T02:35:33.085Z,4.47
2018-05-08T02:38:00.658Z,4.50
2018-05-08T02:40:28.212Z,4.30
2018-05-08T02:42:55.765Z,3.87
2018-05-08T02:45:23.315Z,3.97
2018-05-08T02:47:50.889Z,4.10
2018-05-08T02:50:18.473Z,3.65
2018-05-08T02:52:46.104Z,4.83
2018-05-08T02:55:14.589Z,4.32
2018-05-08T02:57:42.130Z,3.80
2018-05-08T03:00:09.806Z,3.90
2018-05-08T03:02:37.376Z,4.40
2018-05-08T03:05:05.034Z,4.07
2018-05-08T03:07:32.586Z,4.30
2018-05-08T03:10:00.167Z,5.20
2018-05-08T03:12:27.689Z,5.50
2018-05-08T03:14:55.264Z,5.80
2018-05-08T03:17:22.789Z,5.83
2018-05-08T03:19:50.495Z,7.80
2018-05-08T03:22:18.058Z,7.33
2018-05-08T03:24:45.707Z,7.17
2018-05-08T03:27:13.370Z,5.60
2018-05-08T03:29:40.929Z,9.97
2018-05-08T03:32:08.477Z,12.10
2018-05-08T03:34:36.061Z,10.07
2018-05-08T03:37:03.614Z,11.35
2018-05-08T03:39:31.271Z,10.90
2018-05-08T03:41:58.862Z,10.45
2018-05-08T03:44:26.394Z,7.20
2018-05-08T03:46:53.947Z,6.43
2018-05-08T03:49:21.519Z,8.98
2018-05-08T03:51:49.176Z,8.18
2018-05-08T03:54:16.728Z,7.90
2018-05-08T03:56:44.903Z,9.25
2018-05-08T03:59:12.463Z,9.77
2018-05-08T04:01:51.914Z,10.27
2018-05-08T04:04:31.185Z,8.93
2018-05-08T04:07:10.583Z,9.20
2018-05-08T04:09:38.115Z,8.73
2018-05-08T04:12:05.694Z,7.67
2018-05-08T04:14:33.249Z,7.20
2018-05-08T04:17:00.811Z,7.17
2018-05-08T04:19:28.396Z,7.93
2018-05-08T04:21:56.032Z,8.57
2018-05-08T04:24:23.599Z,8.17
2018-05-08T04:26:51.156Z,7.20
2018-05-08T04:29:18.814Z,6.93
2018-05-08T04:31:46.338Z,6.50
2018-05-08T04:34:14.965Z,6.78
2018-05-08T04:36:42.642Z,5.90
2018-05-08T04:39:10.280Z,5.63
2018-05-08T04:41:37.794Z,5.77
2018-05-08T04:44:05.403Z,5.93
2018-05-08T04:46:32.924Z,5.57
2018-05-08T04:49:00.527Z,5.53
2018-05-08T04:51:28.081Z,5.00
2018-05-08T04:53:55.743Z,4.60
2018-05-08T04:56:23.298Z,5.20
2018-05-08T04:58:50.885Z,4.78
2018-05-08T05:01:19.043Z,4.93
2018-05-08T05:03:46.592Z,5.50
2018-05-08T05:06:15.041Z,5.90
2018-05-08T05:08:42.572Z,5.77
2018-05-08T05:11:10.151Z,5.63
2018-05-08T05:13:37.753Z,4.73
2018-05-08T05:16:05.301Z,4.67
2018-05-08T05:18:32.832Z,4.50
2018-05-08T05:21:00.378Z,5.15
2018-05-08T05:23:27.903Z,4.27
2018-05-08T05:25:55.863Z,4.57
2018-05-08T05:28:23.466Z,4.20
2018-05-08T05:30:51.066Z,4.00
2018-05-08T05:33:18.638Z,4.50
2018-05-08T05:35:46.169Z,4.03
2018-05-08T05:38:13.722Z,3.33
2018-05-08T05:40:41.328Z,3.20
2018-05-08T05:43:08.981Z,3.43
2018-05-08T05:45:36.546Z,3.30
2018-05-08T05:48:04.200Z,3.67
2018-05-08T05:50:31.733Z,4.53
2018-05-08T05:52:59.323Z,3.43
2018-05-08T05:55:27.296Z,3.50
2018-05-08T05:57:54.904Z,3.17
2018-05-08T06:00:22.442Z,15.10
2018-05-08T06:02:49.996Z,4.27
2018-05-08T06:05:17.547Z,14.43
2018-05-08T06:07:45.248Z,3.72
2018-05-08T06:10:12.954Z,5.03
2018-05-08T06:12:40.506Z,3.37
2018-05-08T06:15:08.083Z,3.08
2018-05-08T06:17:34.905Z,3.00
2018-05-08T06:20:06.027Z,2.90
2018-05-08T06:22:33.735Z,3.07
2018-05-08T06:25:01.383Z,2.97
2018-05-08T06:27:28.915Z,3.20
2018-05-08T06:29:56.470Z,3.67
2018-05-08T06:32:23.997Z,3.30
2018-05-08T06:34:51.724Z,2.45
2018-05-08T06:37:19.281Z,2.90
2018-05-08T06:39:46.856Z,2.53
2018-05-08T06:42:15.430Z,3.03
2018-05-08T06:44:43.011Z,2.87
2018-05-08T06:47:10.534Z,2.57
2018-05-08T06:49:38.211Z,2.83
2018-05-08T06:52:05.775Z,3.10
2018-05-08T06:54:33.442Z,2.92
2018-05-08T06:57:00.969Z,2.70
2018-05-08T06:59:28.547Z,2.60
2018-05-08T07:01:56.094Z,2.30
2018-05-08T07:04:23.666Z,3.03
2018-05-08T07:06:51.227Z,2.22
2018-05-08T07:09:18.804Z,2.60
2018-05-08T07:11:46.424Z,2.62
2018-05-08T07:14:13.955Z,2.90
2018-05-08T07:16:41.513Z,2.67
2018-05-08T07:19:09.059Z,2.57
2018-05-08T07:21:36.614Z,2.33
2018-05-08T07:24:07.587Z,2.63
2018-05-08T07:26:35.493Z,2.80
2018-05-08T07:29:03.720Z,2.03
2018-05-08T07:31:31.330Z,2.70
2018-05-08T07:33:58.876Z,2.20
2018-05-08T07:36:26.653Z,2.20
2018-05-08T07:38:54.326Z,2.20
2018-05-08T07:41:22.035Z,2.30
2018-05-08T07:43:49.848Z,2.17
2018-05-08T07:46:17.438Z,2.40
2018-05-08T07:48:46.293Z,2.65
2018-05-08T07:51:14.820Z,2.70
2018-05-08T07:53:42.346Z,2.03
2018-05-08T07:56:10.822Z,2.73
2018-05-08T07:58:38.499Z,2.17
2018-05-08T08:01:07.124Z,2.03
2018-05-08T08:03:34.647Z,2.10
2018-05-08T08:06:02.932Z,2.10
2018-05-08T08:08:30.506Z,2.00
2018-05-08T08:10:58.267Z,1.90
2018-05-08T08:13:27.008Z,2.17
2018-05-08T08:15:54.873Z,2.20
2018-05-08T08:18:23.511Z,1.90
2018-05-08T08:20:51.067Z,2.10
2018-05-08T08:23:19.445Z,2.10
2018-05-08T08:25:47.046Z,2.50
2018-05-08T08:28:15.773Z,2.20
2018-05-08T08:30:43.621Z,2.13
2018-05-08T08:33:11.275Z,2.23
2018-05-08T08:35:38.912Z,2.10
2018-05-08T08:38:06.939Z,2.40
2018-05-08T08:40:34.780Z,1.90
2018-05-08T08:43:02.387Z,2.03
2018-05-08T08:45:30.636Z,2.23
2018-05-08T08:48:00.039Z,2.13
2018-05-08T08:50:27.645Z,1.80
2018-05-08T08:52:55.226Z,2.45
2018-05-08T08:55:22.746Z,2.13
2018-05-08T08:57:50.454Z,1.90
2018-05-08T09:00:18.119Z,2.50
2018-05-08T09:02:47.006Z,1.80
2018-05-08T09:05:14.544Z,2.10
2018-05-08T09:07:42.430Z,1.90
2018-05-08T09:10:10.515Z,2.07
2018-05-08T09:12:38.116Z,2.10
2018-05-08T09:15:05.663Z,2.40
2018-05-08T09:17:36.497Z,2.10
2018-05-08T09:20:04.427Z,2.00
2018-05-08T09:22:32.125Z,1.77
2018-05-08T09:24:59.935Z,2.20
2018-05-08T09:27:28.132Z,2.47
2018-05-08T09:29:55.691Z,2.57
2018-05-08T09:32:23.353Z,1.90
2018-05-08T09:34:51.186Z,1.83
2018-05-08T09:37:18.790Z,1.77
2018-05-08T09:39:46.344Z,1.90
2018-05-08T09:42:15.677Z,1.77
2018-05-08T09:44:43.322Z,1.80
2018-05-08T09:47:10.968Z,1.90
2018-05-08T09:49:38.727Z,2.00
2018-05-08T09:52:06.905Z,2.10
2018-05-08T09:54:34.482Z,1.90
2018-05-08T09:57:03.059Z,1.95
2018-05-08T09:59:31.608Z,2.10
2018-05-08T10:01:59.184Z,2.15
2018-05-08T10:04:28.817Z,1.97
2018-05-08T10:06:56.566Z,1.67
2018-05-08T10:09:26.671Z,2.20
2018-05-08T10:11:55.165Z,1.92
2018-05-08T10:14:23.639Z,1.97
2018-05-08T10:16:51.198Z,1.73
2018-05-08T10:19:19.677Z,2.00
2018-05-08T10:21:48.745Z,1.93
2018-05-08T10:24:22.236Z,2.10
2018-05-08T10:26:50.494Z,1.90
2018-05-08T10:29:18.831Z,2.03
2018-05-08T10:31:46.696Z,1.80
2018-05-08T10:34:14.356Z,1.90
2018-05-08T10:36:42.758Z,2.30
2018-05-08T10:39:10.745Z,1.87
2018-05-08T10:41:38.469Z,1.77
2018-05-08T10:44:07.267Z,1.83
2018-05-08T10:46:35.225Z,1.87
2018-05-08T10:49:03.829Z,2.15
2018-05-08T10:51:35.237Z,1.77
2018-05-08T10:54:04.111Z,1.53
2018-05-08T10:56:32.324Z,1.60
2018-05-08T10:59:00.161Z,1.83
2018-05-08T11:01:27.714Z,1.80
2018-05-08T11:03:56.029Z,2.10
2018-05-08T11:06:23.690Z,2.03
2018-05-08T11:08:51.845Z,1.87
2018-05-08T11:11:19.449Z,2.27
2018-05-08T11:13:47.029Z,1.70
2018-05-08T11:16:15.280Z,2.17
2018-05-08T11:18:42.832Z,1.80
2018-05-08T11:21:10.381Z,1.70
2018-05-08T11:23:37.935Z,2.05
2018-05-08T11:26:05.514Z,2.10
2018-05-08T11:28:33.055Z,1.70
2018-05-08T11:31:00.611Z,1.73
2018-05-08T11:33:28.172Z,2.10
2018-05-08T11:35:55.717Z,1.80
2018-05-08T11:38:23.249Z,1.60
2018-05-08T11:40:50.852Z,1.80
2018-05-08T11:43:18.349Z,1.97
2018-05-08T11:45:45.972Z,1.73
2018-05-08T11:48:13.641Z,2.00
2018-05-08T11:50:41.207Z,1.53
2018-05-08T11:53:08.761Z,1.90
2018-05-08T11:55:36.338Z,1.80
2018-05-08T11:58:03.979Z,1.93
2018-05-08T12:00:31.493Z,2.10
2018-05-08T12:02:59.094Z,2.20
2018-05-08T12:05:26.623Z,1.90
2018-05-08T12:07:54.180Z,2.00
2018-05-08T12:10:22.497Z,2.00
2018-05-08T12:12:50.052Z,2.27
2018-05-08T12:15:17.606Z,1.80
2018-05-08T12:17:45.159Z,1.60
2018-05-08T12:20:12.686Z,1.90
2018-05-08T12:22:40.238Z,1.97
2018-05-08T12:25:07.846Z,1.73
2018-05-08T12:27:35.418Z,1.97
2018-05-08T12:30:02.945Z,1.70
2018-05-08T12:32:30.500Z,1.73
2018-05-08T12:34:58.025Z,1.67
2018-05-08T12:37:25.600Z,1.77
2018-05-08T12:39:53.130Z,2.00
2018-05-08T12:42:20.658Z,1.60
2018-05-08T12:44:48.209Z,1.50
2018-05-08T12:47:15.778Z,1.43
2018-05-08T12:49:43.418Z,1.47
2018-05-08T12:52:10.963Z,1.43
2018-05-08T12:54:38.570Z,1.47
2018-05-08T12:57:06.120Z,1.90
2018-05-08T12:59:33.781Z,1.83
2018-05-08T13:02:01.301Z,1.60
2018-05-08T13:04:28.873Z,1.50
2018-05-08T13:06:56.472Z,1.50
2018-05-08T13:09:24.133Z,1.90
2018-05-08T13:11:52.704Z,1.90
2018-05-08T13:14:20.233Z,1.90
2018-05-08T13:16:47.837Z,2.10
2018-05-08T13:19:15.391Z,1.93
2018-05-08T13:21:43.048Z,1.77
2018-05-08T13:24:10.613Z,1.98
2018-05-08T13:26:38.252Z,1.97
2018-05-08T13:29:05.798Z,1.98
2018-05-08T13:31:33.499Z,1.80
2018-05-08T13:34:01.052Z,1.90
2018-05-08T13:36:30.774Z,1.70
2018-05-08T13:38:58.316Z,1.80
2018-05-08T13:41:25.978Z,1.93
2018-05-08T13:43:53.641Z,2.00
2018-05-08T13:46:21.214Z,2.07
2018-05-08T13:48:48.782Z,1.63
2018-05-08T13:51:16.341Z,1.50
2018-05-08T13:53:43.878Z,1.40
2018-05-08T13:56:11.439Z,1.80
2018-05-08T13:58:38.998Z,1.90
2018-05-08T14:01:06.557Z,1.67
2018-05-08T14:03:34.106Z,1.67
2018-05-08T14:06:01.682Z,1.90
2018-05-08T14:08:29.232Z,1.80
2018-05-08T14:10:56.781Z,1.50
2018-05-08T14:13:24.353Z,1.33
2018-05-08T14:15:52.941Z,2.00
2018-05-08T14:18:20.514Z,1.73
2018-05-08T14:20:48.056Z,2.00
2018-05-08T14:23:15.622Z,1.60
2018-05-08T14:25:43.177Z,2.03
2018-05-08T14:28:10.735Z,2.03
2018-05-08T14:30:38.307Z,2.47
2018-05-08T14:33:05.877Z,1.87
2018-05-08T14:35:33.408Z,1.98
2018-05-08T14:38:00.978Z,1.53
2018-05-08T14:40:28.533Z,1.80
2018-05-08T14:42:56.210Z,1.67
2018-05-08T14:45:23.766Z,2.00
2018-05-08T14:47:51.420Z,2.50
2018-05-08T14:50:18.976Z,1.93
2018-05-08T14:52:46.535Z,1.50
2018-05-08T14:55:14.154Z,2.00
2018-05-08T14:57:41.731Z,1.60
2018-05-08T15:00:09.333Z,2.07
2018-05-08T15:02:36.883Z,1.65
2018-05-08T15:05:04.539Z,1.80
2018-05-08T15:07:32.065Z,1.83
2018-05-08T15:09:59.616Z,1.60
2018-05-08T15:12:27.141Z,2.10
2018-05-08T15:14:54.693Z,1.83
2018-05-08T15:17:23.257Z,2.28
2018-05-08T15:19:50.874Z,2.00
2018-05-08T15:22:18.466Z,1.60
2018-05-08T15:24:46.002Z,1.70
2018-05-08T15:27:13.530Z,1.70
2018-05-08T15:29:41.157Z,1.77
2018-05-08T15:32:08.687Z,2.10
2018-05-08T15:34:36.265Z,1.75
2018-05-08T15:37:03.835Z,1.87
2018-05-08T15:39:31.410Z,1.83
2018-05-08T15:41:58.948Z,1.70
2018-05-08T15:44:26.523Z,1.80
2018-05-08T15:46:54.103Z,1.60
2018-05-08T15:49:21.734Z,2.40
2018-05-08T15:51:49.397Z,2.00
2018-05-08T15:54:17.030Z,2.00
2018-05-08T15:56:44.607Z,1.80
2018-05-08T15:59:12.183Z,1.90
2018-05-08T16:01:39.845Z,2.00
2018-05-08T16:04:07.387Z,1.90
2018-05-08T16:06:34.940Z,2.07
2018-05-08T16:09:03.365Z,1.70
2018-05-08T16:11:31.013Z,1.85
2018-05-08T16:13:58.574Z,1.80
2018-05-08T16:16:26.146Z,2.07
2018-05-08T16:18:53.824Z,2.00
2018-05-08T16:21:21.453Z,2.70
2018-05-08T16:23:48.977Z,2.13
2018-05-08T16:26:16.667Z,1.83
2018-05-08T16:28:44.221Z,2.13
2018-05-08T16:31:11.780Z,2.10
2018-05-08T16:33:39.341Z,2.10
2018-05-08T16:36:07.016Z,1.90
2018-05-08T16:38:34.568Z,2.50
2018-05-08T16:41:02.122Z,2.83
2018-05-08T16:43:29.683Z,2.40
2018-05-08T16:45:57.250Z,1.90
2018-05-08T16:48:24.803Z,2.10
2018-05-08T16:50:52.378Z,1.70
2018-05-08T16:53:19.928Z,1.62
2018-05-08T16:55:47.587Z,2.00
2018-05-08T16:58:15.142Z,1.73
2018-05-08T17:00:42.701Z,1.83
2018-05-08T17:03:10.265Z,1.90
2018-05-08T17:05:37.899Z,2.50
2018-05-08T17:08:05.493Z,2.25
2018-05-08T17:10:33.109Z,1.47
2018-05-08T17:13:00.707Z,2.00
2018-05-08T17:15:28.253Z,2.27
2018-05-08T17:17:55.824Z,2.40
2018-05-08T17:20:23.383Z,2.33
2018-05-08T17:22:51.056Z,1.83
2018-05-08T17:25:18.611Z,2.13
2018-05-08T17:27:46.163Z,1.93
2018-05-08T17:30:13.722Z,2.00
2018-05-08T17:32:41.280Z,1.80
2018-05-08T17:35:08.841Z,1.87
2018-05-08T17:37:36.519Z,1.83
2018-05-08T17:40:04.174Z,2.00
2018-05-08T17:42:31.827Z,1.77
2018-05-08T17:44:59.356Z,1.80
2018-05-08T17:47:26.950Z,1.77
2018-05-08T17:49:54.482Z,1.70
2018-05-08T17:52:22.180Z,1.63
2018-05-08T17:54:49.737Z,1.67
2018-05-08T17:57:17.568Z,1.90
2018-05-08T17:59:45.153Z,2.30
2018-05-08T18:02:12.746Z,2.00
2018-05-08T18:04:40.380Z,2.07
2018-05-08T18:07:07.948Z,2.13
2018-05-08T18:09:35.500Z,1.90
2018-05-08T18:12:03.155Z,1.80
2018-05-08T18:14:30.713Z,2.03
2018-05-08T18:16:58.377Z,2.20
2018-05-08T18:19:25.936Z,2.37
2018-05-08T18:21:53.606Z,2.10
2018-05-08T18:24:21.139Z,2.40
2018-05-08T18:26:48.717Z,2.37
2018-05-08T18:29:16.242Z,1.80
2018-05-08T18:31:43.819Z,1.90
2018-05-08T18:34:11.399Z,2.17
2018-05-08T18:36:38.953Z,1.80
2018-05-08T18:39:06.593Z,1.93
2018-05-08T18:41:34.141Z,1.70
2018-05-08T18:44:01.791Z,1.77
2018-05-08T18:46:30.011Z,2.12
2018-05-08T18:48:57.585Z,2.10
2018-05-08T18:51:25.134Z,1.90
2018-05-08T18:53:52.740Z,1.70
2018-05-08T18:56:20.266Z,2.20
2018-05-08T18:58:47.844Z,1.90
2018-05-08T19:01:15.474Z,2.40
2018-05-08T19:03:43.152Z,2.20
2018-05-08T19:06:10.801Z,2.30
2018-05-08T19:08:40.403Z,2.20
2018-05-08T19:11:13.492Z,2.20
2018-05-08T19:13:41.064Z,2.37
2018-05-08T19:16:08.611Z,2.30
2018-05-08T19:18:41.841Z,2.00
2018-05-08T19:21:09.436Z,2.20
2018-05-08T19:23:37.190Z,2.20
2018-05-08T19:26:04.720Z,2.20
2018-05-08T19:31:36.125Z,2.60
2018-05-08T19:34:03.697Z,2.60
2018-05-08T19:36:36.785Z,2.80
2018-05-08T19:39:05.350Z,2.70
2018-05-08T19:41:32.831Z,3.07
2018-05-08T19:44:00.405Z,3.50
2018-05-08T19:46:27.942Z,2.90
2018-05-08T19:48:55.514Z,3.13
2018-05-08T19:51:23.041Z,3.37
2018-05-08T19:53:50.593Z,3.20
2018-05-08T19:56:18.206Z,3.10
2018-05-08T19:58:45.863Z,3.30
2018-05-08T20:01:13.404Z,3.07
2018-05-08T20:03:40.927Z,3.37
2018-05-08T20:06:25.550Z,3.00
2018-05-08T20:12:06.681Z,3.77
2018-05-08T20:14:34.312Z,3.23
2018-05-08T20:17:01.842Z,3.57
2018-05-08T20:19:29.814Z,4.10
2018-05-08T20:21:57.490Z,4.00
2018-05-08T20:24:25.022Z,4.50
2018-05-08T20:26:52.573Z,3.73
2018-05-08T20:29:20.177Z,3.27
2018-05-08T20:31:48.240Z,4.30
2018-05-08T20:34:15.901Z,3.70
2018-05-08T20:36:43.460Z,3.83
2018-05-08T20:39:10.984Z,3.50
2018-05-08T20:41:38.539Z,3.42
2018-05-08T20:44:06.065Z,4.20
2018-05-08T20:46:33.611Z,3.30
2018-05-08T20:49:01.119Z,3.53
2018-05-08T20:51:28.716Z,3.60
2018-05-08T20:53:56.247Z,3.60
2018-05-08T20:56:23.826Z,3.42
2018-05-08T20:58:51.352Z,3.50
2018-05-08T21:01:18.985Z,3.33
2018-05-08T21:03:46.513Z,3.47
2018-05-08T21:06:14.176Z,3.40
2018-05-08T21:08:41.838Z,3.40
2018-05-08T21:11:09.398Z,3.10
2018-05-08T21:13:36.969Z,3.35
2018-05-08T21:16:04.518Z,3.83
2018-05-08T21:18:32.075Z,3.70
2018-05-08T21:21:00.549Z,3.83
2018-05-08T21:23:28.073Z,3.07
2018-05-08T21:25:56.624Z,3.87
2018-05-08T21:28:29.778Z,3.20
2018-05-08T21:31:02.953Z,3.20
2018-05-08T21:33:30.505Z,3.60
2018-05-08T21:35:58.099Z,3.30
2018-05-08T21:38:25.886Z,3.20
2018-05-08T21:40:56.284Z,2.83
2018-05-08T21:43:24.046Z,3.53
2018-05-08T21:45:51.717Z,3.10
2018-05-08T21:48:19.276Z,2.97
2018-05-08T21:50:46.849Z,3.55
2018-05-08T21:53:14.501Z,3.50
2018-05-08T21:55:44.177Z,3.45
2018-05-08T21:58:12.717Z,3.17
2018-05-08T22:00:41.463Z,3.43
2018-05-08T22:03:11.432Z,3.40
2018-05-08T22:05:41.727Z,3.53
2018-05-08T22:08:09.518Z,3.33
2018-05-08T22:10:39.664Z,3.00
2018-05-08T22:13:07.314Z,3.20
2018-05-08T22:15:35.720Z,3.20
2018-05-08T22:18:05.069Z,3.40
2018-05-08T22:20:34.848Z,2.92
2018-05-08T22:23:04.377Z,3.67
2018-05-08T22:25:33.079Z,2.87
2018-05-08T22:28:01.181Z,3.03
2018-05-08T22:30:29.388Z,3.13
2018-05-08T22:32:59.984Z,3.37
2018-05-08T22:35:30.883Z,3.10
2018-05-08T22:37:58.913Z,2.80
2018-05-08T22:40:27.365Z,3.30
2018-05-08T22:42:55.372Z,2.95
2018-05-08T22:45:24.069Z,3.10
2018-05-08T22:47:52.350Z,2.90
2018-05-08T22:50:20.128Z,2.80
2018-05-08T22:52:48.130Z,2.90
2018-05-08T22:55:17.759Z,2.80
2018-05-08T22:57:45.759Z,2.80
2018-05-08T23:00:15.463Z,2.90
2018-05-08T23:02:44.665Z,3.08
2018-05-08T23:05:12.863Z,3.00
2018-05-08T23:07:42.112Z,3.03
2018-05-08T23:10:10.219Z,3.30
2018-05-08T23:12:38.898Z,3.23
2018-05-08T23:15:07.178Z,2.75
2018-05-08T23:17:34.724Z,2.73
2018-05-08T23:20:02.290Z,2.97
2018-05-08T23:22:29.833Z,3.00
2018-05-08T23:24:57.409Z,2.87
2018-05-08T23:27:24.936Z,2.93
2018-05-08T23:29:52.486Z,2.90
2018-05-08T23:32:20.016Z,3.20
2018-05-08T23:34:47.565Z,2.70
2018-05-08T23:37:15.105Z,3.13
2018-05-08T23:39:42.671Z,2.60
2018-05-08T23:42:10.195Z,3.03
2018-05-08T23:44:37.749Z,2.90
2018-05-08T23:47:05.277Z,3.10
2018-05-08T23:49:32.825Z,2.93
2018-05-08T23:52:01.337Z,3.17
2018-05-08T23:54:28.886Z,2.60
2018-05-08T23:56:56.511Z,2.90
2018-05-08T23:59:24.134Z,2.97
